Time;durP1;ratioP1;P1;durP2;ratioP2;P2;SDS_P1;SDS_P2;PMS_P1;PMS_P2;Temp;Humidity;BMP_temperature;BMP_pressure;BME280_temperature;BME280_humidity;BME280_pressure;Samples;Min_cycle;Max_cycle;Signal;HPM_P1;HPM_P2
2021/07/12 00:01:18;;;;;;;2.30;1.87;;;;;;;23.57;72.07;97830.94;5071283;28;20205;-70
2021/07/12 00:03:46;;;;;;;2.47;1.80;;;;;;;23.73;71.17;97824.22;5057216;28;20718;-70
2021/07/12 00:06:13;;;;;;;2.97;2.10;;;;;;;23.55;72.72;97828.50;5051438;28;20588;-70
2021/07/12 00:08:41;;;;;;;2.90;2.40;;;;;;;23.75;72.32;97814.66;5051605;28;20210;-70
2021/07/12 00:11:08;;;;;;;3.53;2.33;;;;;;;23.83;71.05;97818.66;5051446;28;20226;-70
2021/07/12 00:13:36;;;;;;;2.60;1.83;;;;;;;24.02;70.27;97820.34;5051260;28;20815;-71
2021/07/12 00:16:04;;;;;;;2.40;1.87;;;;;;;23.65;71.82;97812.03;5051171;28;20206;-70
2021/07/12 00:18:31;;;;;;;2.77;1.90;;;;;;;23.24;73.60;97810.00;5052962;28;20210;-70
2021/07/12 00:21:00;;;;;;;2.70;1.87;;;;;;;23.50;72.18;97805.94;5055617;28;20212;-70
2021/07/12 00:23:27;;;;;;;3.20;1.80;;;;;;;23.57;73.04;97804.50;5054228;28;20237;-70
2021/07/12 00:25:54;;;;;;;4.07;2.00;;;;;;;23.73;72.21;97810.59;5059152;28;20229;-70
2021/07/12 00:28:21;;;;;;;3.87;2.17;;;;;;;23.73;71.50;97803.25;5073536;28;20205;-70
2021/07/12 00:30:49;;;;;;;3.00;2.30;;;;;;;23.87;70.69;97808.81;5073228;28;20212;-70
2021/07/12 00:33:16;;;;;;;3.17;2.03;;;;;;;23.74;70.83;97804.88;5073479;28;20679;-70
2021/07/12 00:35:43;;;;;;;2.50;2.10;;;;;;;23.53;73.51;97799.91;5073263;28;20201;-70
2021/07/12 00:38:12;;;;;;;4.50;2.20;;;;;;;23.79;72.33;97795.81;5054078;28;20209;-70
2021/07/12 00:40:39;;;;;;;3.53;2.00;;;;;;;23.82;71.28;97798.75;5053594;28;20616;-70
2021/07/12 00:43:06;;;;;;;3.33;2.00;;;;;;;23.62;72.29;97779.13;5053784;28;20228;-70
2021/07/12 00:45:35;;;;;;;3.90;1.90;;;;;;;23.47;72.21;97773.84;5053300;28;20670;-70
2021/07/12 00:48:03;;;;;;;3.10;2.40;;;;;;;23.41;72.95;97775.78;5053696;28;20704;-70
2021/07/12 00:50:33;;;;;;;3.23;2.00;;;;;;;23.08;74.83;97776.63;5053754;28;20202;-70
2021/07/12 00:53:01;;;;;;;4.30;1.90;;;;;;;23.02;75.40;97769.63;5060334;28;20264;-70
2021/07/12 00:55:32;;;;;;;2.87;2.17;;;;;;;22.88;76.22;97765.94;5072597;28;20217;-70
2021/07/12 00:58:00;;;;;;;3.20;2.17;;;;;;;22.85;76.52;97769.19;5053631;28;20233;-70
2021/07/12 01:00:28;;;;;;;2.70;2.13;;;;;;;22.98;75.68;97767.72;5053238;28;20213;-70
2021/07/12 01:02:55;;;;;;;4.90;2.57;;;;;;;22.90;75.79;97771.88;5053968;28;20194;-69
2021/07/12 01:05:27;;;;;;;3.30;2.37;;;;;;;22.87;77.17;97764.31;5053292;28;20213;-70
2021/07/12 01:07:54;;;;;;;2.40;2.10;;;;;;;22.68;77.71;97757.09;5057953;28;20203;-70
2021/07/12 01:10:22;;;;;;;4.77;2.57;;;;;;;22.91;77.25;97756.38;5070755;28;20208;-70
2021/07/12 01:13:14;;;;;;;2.80;2.30;;;;;;;22.69;78.12;97758.72;5064086;28;20222;-70
2021/07/12 01:15:52;;;;;;;3.80;2.33;;;;;;;22.78;76.51;97754.28;5052480;28;20198;-70
2021/07/12 01:18:27;;;;;;;2.93;2.30;;;;;;;22.67;77.14;97753.59;5053186;28;20205;-71
2021/07/12 01:21:45;;;;;;;3.30;2.30;;;;;;;23.06;76.32;97754.31;5052569;28;20309;-70
2021/07/12 01:25:03;;;;;;;2.77;2.23;;;;;;;23.26;73.64;97751.44;5016930;28;1061487;-70
2021/07/12 01:28:19;;;;;;;4.33;2.53;;;;;;;23.22;74.33;97744.13;5054565;28;20214;-71
2021/07/12 01:31:30;;;;;;;3.07;2.33;;;;;;;23.42;72.89;97747.44;5054074;28;20213;-70
2021/07/12 01:34:03;;;;;;;6.60;2.30;;;;;;;23.13;73.69;97741.19;4980266;28;20224;-71
2021/07/12 01:36:37;;;;;;;4.10;2.40;;;;;;;23.00;75.04;97735.63;5054066;28;20583;-70
2021/07/12 01:39:06;;;;;;;3.83;2.90;;;;;;;22.90;74.51;97741.16;5053891;28;20210;-70
2021/07/12 01:41:37;;;;;;;3.33;2.63;;;;;;;22.96;75.21;97738.06;5072506;28;20283;-70
2021/07/12 01:44:11;;;;;;;3.07;2.40;;;;;;;22.94;75.00;97734.84;5073821;28;20251;-70
2021/07/12 01:46:43;;;;;;;5.07;2.70;;;;;;;22.67;76.82;97726.38;5064843;28;20667;-70
2021/07/12 01:49:16;;;;;;;5.13;2.50;;;;;;;22.77;76.41;97728.19;5053958;28;20213;-71
2021/07/12 01:51:46;;;;;;;5.27;2.60;;;;;;;23.00;75.75;97719.28;5053926;28;20725;-70
2021/07/12 01:54:17;;;;;;;4.30;2.60;;;;;;;22.78;76.20;97725.19;5053426;28;20595;-71
2021/07/12 01:56:50;;;;;;;3.83;2.53;;;;;;;23.10;75.13;97719.19;5057130;28;20201;-72
2021/07/12 01:59:22;;;;;;;6.33;2.90;;;;;;;22.97;74.57;97719.84;5071914;28;20210;-70
2021/07/12 02:01:50;;;;;;;2.90;2.37;;;;;;;23.00;74.58;97714.63;5055784;28;20223;-71
2021/07/12 02:04:20;;;;;;;5.40;2.87;;;;;;;22.79;76.23;97713.19;5054206;28;20225;-70
2021/07/12 02:06:49;;;;;;;3.90;2.70;;;;;;;22.90;76.29;97716.66;5053485;28;20202;-70
2021/07/12 02:09:16;;;;;;;4.23;2.50;;;;;;;22.95;75.56;97716.63;5066801;28;20208;-70
2021/07/12 02:11:46;;;;;;;4.57;2.90;;;;;;;22.74;77.40;97715.16;5059950;28;20226;-70
2021/07/12 02:14:17;;;;;;;3.40;2.70;;;;;;;23.20;74.80;97719.91;5066962;28;20225;-70
2021/07/12 02:16:45;;;;;;;3.40;2.70;;;;;;;23.08;74.68;97726.81;5064345;28;20201;-70
2021/07/12 02:19:12;;;;;;;4.30;3.00;;;;;;;23.00;76.10;97730.97;5053117;28;20219;-70
2021/07/12 02:21:41;;;;;;;3.20;2.63;;;;;;;23.09;75.14;97728.44;5058278;28;20194;-70
2021/07/12 02:24:09;;;;;;;3.07;2.57;;;;;;;23.19;74.33;97726.47;5052950;28;20238;-70
2021/07/12 02:26:36;;;;;;;5.33;2.70;;;;;;;23.17;74.19;97723.19;5064274;28;20205;-70
2021/07/12 02:29:05;;;;;;;5.47;2.80;;;;;;;23.05;74.64;97720.03;5059301;28;20204;-71
2021/07/12 02:31:33;;;;;;;5.17;2.70;;;;;;;23.05;74.37;97727.41;5053089;28;20201;-70
2021/07/12 02:34:00;;;;;;;5.90;2.13;;;;;;;22.93;75.92;97719.59;5059034;28;20232;-70
2021/07/12 02:36:28;;;;;;;3.80;2.77;;;;;;;22.60;77.47;97715.00;5071457;28;20198;-70
2021/07/12 02:38:58;;;;;;;4.53;2.43;;;;;;;22.60;78.50;97727.81;5058936;28;20201;-70
2021/07/12 02:41:26;;;;;;;6.00;2.80;;;;;;;22.86;77.37;97727.28;5051918;28;20198;-70
2021/07/12 02:43:54;;;;;;;4.00;2.67;;;;;;;22.95;76.22;97722.84;5066229;28;20247;-70
2021/07/12 02:46:24;;;;;;;3.80;2.60;;;;;;;23.06;75.71;97718.13;5068951;28;20216;-70
2021/07/12 02:48:51;;;;;;;3.27;2.50;;;;;;;22.72;77.35;97714.63;5072106;28;20211;-70
2021/07/12 02:51:24;;;;;;;4.60;3.10;;;;;;;22.39;78.63;97713.50;5059699;28;20204;-70
2021/07/12 02:53:59;;;;;;;3.00;2.47;;;;;;;22.71;77.80;97710.28;5066229;28;20600;-70
2021/07/12 02:56:26;;;;;;;6.47;2.90;;;;;;;22.42;77.82;97709.41;5061927;28;20213;-71
2021/07/12 02:58:53;;;;;;;3.30;2.53;;;;;;;22.57;78.46;97714.75;5052777;28;20227;-70
2021/07/12 03:01:21;;;;;;;7.17;2.20;;;;;;;22.78;76.91;97718.91;5052545;28;20209;-70
2021/07/12 03:03:49;;;;;;;3.97;2.50;;;;;;;22.71;76.53;97732.06;5063212;28;20719;-70
2021/07/12 03:06:17;;;;;;;4.73;2.30;;;;;;;22.57;77.62;97721.03;5063635;28;20209;-70
2021/07/12 03:08:53;;;;;;;4.17;2.93;;;;;;;22.66;77.80;97730.19;5055803;28;20198;-70
2021/07/12 03:11:24;;;;;;;3.67;2.33;;;;;;;22.82;75.67;97733.59;5053167;28;20192;-70
2021/07/12 03:13:54;;;;;;;2.50;2.20;;;;;;;22.62;76.48;97723.69;5064072;28;20229;-70
2021/07/12 03:16:21;;;;;;;3.00;2.20;;;;;;;22.34;78.93;97712.75;5051949;28;20216;-70
2021/07/12 03:18:52;;;;;;;2.57;2.20;;;;;;;22.51;78.01;97705.84;5052248;28;20225;-70
2021/07/12 03:21:20;;;;;;;3.40;2.40;;;;;;;22.46;78.25;97705.06;5051846;28;20206;-70
2021/07/12 03:23:50;;;;;;;2.73;2.23;;;;;;;22.12;80.59;97702.28;5051961;28;20230;-70
2021/07/12 03:26:19;;;;;;;5.47;2.70;;;;;;;22.36;78.39;97705.91;5052782;28;20734;-70
2021/07/12 03:28:49;;;;;;;5.60;2.53;;;;;;;22.53;79.23;97702.81;5052386;28;20204;-70
2021/07/12 03:31:21;;;;;;;4.03;2.50;;;;;;;22.49;78.41;97694.41;5052644;28;20212;-70
2021/07/12 03:33:51;;;;;;;4.60;2.53;;;;;;;22.27;80.54;97688.56;5051977;28;20221;-70
2021/07/12 03:36:18;;;;;;;3.20;2.40;;;;;;;22.87;75.74;97693.53;5054857;28;20664;-70
2021/07/12 03:38:45;;;;;;;3.17;2.37;;;;;;;22.88;76.08;97691.63;5059401;28;20204;-70
2021/07/12 03:41:13;;;;;;;4.03;2.20;;;;;;;22.63;76.75;97681.78;5054721;28;20218;-70
2021/07/12 03:43:41;;;;;;;5.37;2.83;;;;;;;22.91;75.08;97693.78;5055691;28;20217;-70
2021/07/12 03:46:10;;;;;;;2.63;2.20;;;;;;;22.72;75.69;97682.81;5055472;28;20229;-70
2021/07/12 03:48:38;;;;;;;3.67;2.50;;;;;;;22.72;76.12;97687.41;5065721;28;20208;-70
2021/07/12 03:51:08;;;;;;;5.63;2.60;;;;;;;22.63;76.00;97683.69;5070983;28;20211;-70
2021/07/12 03:53:35;;;;;;;2.77;2.20;;;;;;;22.68;76.43;97683.63;5053243;28;20229;-70
2021/07/12 03:56:04;;;;;;;3.70;2.70;;;;;;;22.67;76.08;97685.56;5051420;28;20232;-70
2021/07/12 03:58:31;;;;;;;3.10;2.77;;;;;;;22.60;77.13;97676.13;5051559;28;20201;-70
2021/07/12 04:00:58;;;;;;;3.37;2.40;;;;;;;22.71;77.34;97688.53;5065409;28;20216;-70
2021/07/12 04:03:27;;;;;;;2.77;2.40;;;;;;;22.76;76.83;97686.56;5067075;28;20227;-70
2021/07/12 04:05:54;;;;;;;3.33;2.73;;;;;;;22.94;76.03;97682.31;5064452;28;20208;-70
2021/07/12 04:08:22;;;;;;;3.47;2.53;;;;;;;22.94;75.24;97690.47;5069500;28;20205;-70
2021/07/12 04:10:49;;;;;;;5.07;3.27;;;;;;;22.83;75.81;97688.94;5063866;28;20563;-70
2021/07/12 04:13:16;;;;;;;4.43;2.60;;;;;;;22.93;75.87;97683.41;5060915;28;20602;-70
2021/07/12 04:15:44;;;;;;;4.57;2.30;;;;;;;23.06;75.72;97680.03;5061940;28;20209;-70
2021/07/12 04:18:11;;;;;;;2.90;2.40;;;;;;;22.60;77.55;97667.94;5064834;28;20241;-70
2021/07/12 04:20:42;;;;;;;3.30;2.30;;;;;;;23.29;74.27;97665.63;5062990;28;20204;-71
2021/07/12 04:23:10;;;;;;;2.60;2.20;;;;;;;23.42;73.11;97657.56;5052925;28;20256;-70
2021/07/12 04:25:37;;;;;;;3.90;2.50;;;;;;;23.46;72.40;97660.53;5051215;28;20202;-70
2021/07/12 04:28:05;;;;;;;6.80;2.87;;;;;;;23.41;72.63;97647.75;5051392;28;20212;-71
2021/07/12 04:30:32;;;;;;;3.83;2.90;;;;;;;23.58;72.46;97648.13;5070638;28;20563;-70
2021/07/12 04:32:59;;;;;;;4.50;2.57;;;;;;;23.54;73.42;97647.06;5067634;28;20228;-70
2021/07/12 04:35:27;;;;;;;4.80;2.93;;;;;;;23.51;72.83;97641.41;5070254;28;20205;-71
2021/07/12 04:37:56;;;;;;;3.10;2.80;;;;;;;23.62;71.89;97645.59;5071182;28;20233;-70
2021/07/12 04:40:23;;;;;;;6.80;3.10;;;;;;;23.57;72.20;97645.69;5070840;28;20197;-71
2021/07/12 04:42:50;;;;;;;5.37;2.93;;;;;;;23.66;72.10;97654.81;5070844;28;20204;-70
2021/07/12 04:45:18;;;;;;;6.03;3.87;;;;;;;23.63;71.91;97655.41;5070241;28;20221;-70
2021/07/12 04:47:45;;;;;;;3.40;2.50;;;;;;;23.94;70.20;97649.28;5063940;28;20642;-71
2021/07/12 04:50:14;;;;;;;4.20;2.40;;;;;;;24.14;69.90;97659.06;5067952;28;20213;-70
2021/07/12 04:52:41;;;;;;;4.50;2.87;;;;;;;24.51;68.03;97656.28;5052605;28;20225;-71
2021/07/12 04:55:11;;;;;;;4.90;3.00;;;;;;;24.80;66.50;97665.91;5050670;28;20233;-70
2021/07/12 04:57:38;;;;;;;4.73;2.70;;;;;;;24.71;66.44;97672.34;5051088;28;20206;-70
2021/07/12 05:00:08;;;;;;;4.93;2.60;;;;;;;24.54;68.36;97672.06;5051164;28;20210;-70
2021/07/12 05:02:35;;;;;;;4.47;2.20;;;;;;;25.15;65.52;97672.63;5070214;28;20838;-70
2021/07/12 05:05:02;;;;;;;3.60;2.20;;;;;;;25.60;63.08;97674.50;5052961;28;20236;-70
2021/07/12 05:07:29;;;;;;;2.27;1.83;;;;;;;25.80;61.85;97679.53;5054519;28;20207;-71
2021/07/12 05:09:57;;;;;;;3.40;2.00;;;;;;;25.74;61.82;97686.25;5061348;28;20202;-71
2021/07/12 05:12:25;;;;;;;5.20;1.90;;;;;;;25.59;61.29;97690.06;5057872;28;20204;-70
2021/07/12 05:14:53;;;;;;;2.97;2.07;;;;;;;26.09;60.42;97686.28;5069790;28;20220;-71
2021/07/12 05:17:20;;;;;;;3.03;1.87;;;;;;;26.19;59.85;97688.00;5057123;28;20210;-71
2021/07/12 05:19:47;;;;;;;2.93;1.83;;;;;;;25.97;58.88;97691.50;5054401;28;20209;-70
2021/07/12 05:22:14;;;;;;;2.47;1.90;;;;;;;26.25;58.59;97675.81;5054336;28;20241;-70
2021/07/12 05:24:41;;;;;;;3.47;1.83;;;;;;;25.53;64.17;97657.72;5053745;28;20782;-70
2021/07/12 05:27:09;;;;;;;2.77;2.03;;;;;;;23.50;70.35;97654.19;5061186;28;20212;-70
2021/07/12 05:29:37;;;;;;;3.97;2.30;;;;;;;24.69;65.68;97656.28;5054389;28;20557;-70
2021/07/12 05:32:05;;;;;;;2.53;1.93;;;;;;;24.56;67.27;97656.19;5060766;28;20236;-71
2021/07/12 05:34:32;;;;;;;5.17;2.10;;;;;;;24.04;68.83;97651.84;5068020;28;20241;-71
2021/07/12 05:37:00;;;;;;;3.67;2.00;;;;;;;24.65;67.25;97648.97;5072448;28;20207;-70
2021/07/12 05:39:27;;;;;;;4.00;1.97;;;;;;;23.96;69.14;97657.16;5053857;28;20664;-70
2021/07/12 05:41:54;;;;;;;3.43;1.73;;;;;;;23.59;72.72;97640.72;5053946;28;20206;-71
2021/07/12 05:44:21;;;;;;;2.67;1.70;;;;;;;24.14;69.43;97639.97;5053853;28;20225;-70
2021/07/12 05:46:50;;;;;;;2.10;1.70;;;;;;;25.06;64.44;97647.13;5053753;28;20553;-71
2021/07/12 05:49:17;;;;;;;2.73;1.70;;;;;;;24.61;67.38;97634.31;5053850;28;20213;-70
2021/07/12 05:51:46;;;;;;;3.60;1.83;;;;;;;24.10;69.07;97636.22;5064789;28;20802;-70
2021/07/12 05:54:13;;;;;;;3.70;1.83;;;;;;;26.25;60.50;97632.84;5063682;28;20234;-70
2021/07/12 05:56:40;;;;;;;3.33;1.90;;;;;;;24.92;64.80;97632.66;5053142;28;20689;-71
2021/07/12 05:59:08;;;;;;;3.00;1.90;;;;;;;25.73;61.62;97632.66;5058893;28;20213;-71
2021/07/12 06:01:35;;;;;;;4.03;2.07;;;;;;;24.52;66.71;97644.28;5073679;28;20202;-71
2021/07/12 06:04:04;;;;;;;3.70;1.77;;;;;;;24.18;69.21;97646.47;5068925;28;20223;-70
2021/07/12 06:06:31;;;;;;;1.97;1.57;;;;;;;24.43;68.85;97648.78;5066067;28;20572;-70
2021/07/12 06:08:58;;;;;;;2.47;1.47;;;;;;;25.33;64.37;97656.19;5062798;28;20206;-70
2021/07/12 06:11:25;;;;;;;2.37;1.63;;;;;;;24.60;66.83;97646.34;5068387;28;20206;-71
2021/07/12 06:13:52;;;;;;;2.00;1.50;;;;;;;24.15;69.26;97638.84;5068231;28;20229;-70
2021/07/12 06:16:20;;;;;;;2.10;1.37;;;;;;;24.68;66.51;97645.66;5066881;28;20694;-70
2021/07/12 06:18:47;;;;;;;5.33;1.80;;;;;;;24.61;66.86;97643.31;5067673;28;20202;-70
2021/07/12 06:21:15;;;;;;;1.97;1.67;;;;;;;26.12;62.13;97647.41;5059332;28;20206;-70
2021/07/12 06:23:43;;;;;;;3.10;1.60;;;;;;;24.75;65.51;97637.88;5073220;28;20221;-70
2021/07/12 06:26:10;;;;;;;2.40;1.67;;;;;;;26.64;57.70;97643.94;5069141;28;20234;-70
2021/07/12 06:28:37;;;;;;;1.73;1.33;;;;;;;27.68;54.32;97644.13;5062824;28;20201;-70
2021/07/12 06:31:04;;;;;;;2.40;1.30;;;;;;;27.20;55.02;97637.81;5062240;28;20209;-71
2021/07/12 06:33:32;;;;;;;1.70;1.50;;;;;;;27.35;53.33;97632.72;5061344;28;20236;-71
2021/07/12 06:35:59;;;;;;;1.67;1.30;;;;;;;26.98;55.60;97619.50;5070751;28;20213;-70
2021/07/12 06:38:29;;;;;;;1.40;1.20;;;;;;;26.18;59.64;97613.31;5065127;28;20213;-71
2021/07/12 06:40:56;;;;;;;1.27;1.13;;;;;;;26.06;60.07;97615.00;5072650;28;20658;-70
2021/07/12 06:43:24;;;;;;;2.47;1.60;;;;;;;25.82;60.82;97603.47;5070417;28;20229;-71
2021/07/12 06:45:51;;;;;;;2.00;1.63;;;;;;;26.27;58.45;97618.84;5059651;28;20198;-71
2021/07/12 06:48:19;;;;;;;3.97;1.60;;;;;;;25.60;62.20;97608.91;5053119;28;20216;-71
2021/07/12 06:50:46;;;;;;;2.17;1.33;;;;;;;27.46;53.50;97623.09;5052693;28;20210;-71
2021/07/12 06:53:14;;;;;;;2.40;1.30;;;;;;;25.97;58.97;97622.31;5058383;28;20229;-70
2021/07/12 06:55:42;;;;;;;1.73;1.27;;;;;;;26.02;59.46;97611.25;5064208;28;20209;-70
2021/07/12 06:58:12;;;;;;;3.10;1.23;;;;;;;26.63;57.58;97617.69;5063524;28;20202;-70
2021/07/12 07:00:40;;;;;;;2.33;1.30;;;;;;;26.16;58.60;97617.50;5065372;28;20209;-70
2021/07/12 07:03:08;;;;;;;1.60;1.37;;;;;;;27.98;52.37;97616.59;5061458;28;20229;-68
2021/07/12 07:05:36;;;;;;;2.10;1.37;;;;;;;26.60;56.97;97601.09;5071817;28;20226;-71
2021/07/12 07:08:03;;;;;;;3.43;1.20;;;;;;;27.38;54.48;97595.66;5072359;28;20229;-71
2021/07/12 07:10:31;;;;;;;3.13;1.30;;;;;;;28.12;51.13;97597.25;5065747;28;20590;-71
2021/07/12 07:12:59;;;;;;;1.63;1.33;;;;;;;29.98;45.16;97597.72;5058529;28;20221;-71
2021/07/12 07:15:26;;;;;;;2.50;1.20;;;;;;;27.71;50.89;97591.38;5060079;28;20672;-71
2021/07/12 07:17:55;;;;;;;3.73;1.50;;;;;;;29.04;46.80;97587.22;5052360;28;20214;-71
2021/07/12 07:20:22;;;;;;;2.00;1.30;;;;;;;28.02;50.70;97587.38;5059333;28;20210;-68
2021/07/12 07:22:49;;;;;;;1.40;1.10;;;;;;;27.94;50.64;97577.22;5063777;28;20219;-71
2021/07/12 07:25:17;;;;;;;2.70;1.53;;;;;;;27.38;53.68;97565.50;5065769;28;20227;-69
2021/07/12 07:27:45;;;;;;;2.67;1.43;;;;;;;27.94;50.18;97570.94;5058438;28;20207;-70
2021/07/12 07:30:15;;;;;;;2.07;1.27;;;;;;;27.03;52.76;97570.06;5058452;28;20207;-70
2021/07/12 07:32:42;;;;;;;3.43;1.50;;;;;;;28.16;50.96;97559.78;5058897;28;20205;-68
2021/07/12 07:35:11;;;;;;;1.80;1.50;;;;;;;28.60;47.13;97562.16;5058055;28;20230;-71
2021/07/12 07:37:39;;;;;;;1.30;1.20;;;;;;;28.26;49.89;97554.78;5071498;28;20211;-68
2021/07/12 07:40:08;;;;;;;3.13;1.47;;;;;;;29.10;45.98;97552.13;5065463;28;20215;-68
2021/07/12 07:42:36;;;;;;;1.53;1.10;;;;;;;27.83;49.82;97545.75;5071048;28;20669;-68
2021/07/12 07:45:04;;;;;;;3.00;1.40;;;;;;;26.30;57.19;97519.75;5066940;28;20584;-68
2021/07/12 07:47:33;;;;;;;2.93;1.37;;;;;;;27.52;53.42;97516.84;5055908;28;20205;-68
2021/07/12 07:50:00;;;;;;;2.97;1.63;;;;;;;27.40;53.41;97520.22;5051701;28;20215;-68
2021/07/12 07:52:27;;;;;;;1.73;1.37;;;;;;;29.01;47.18;97524.72;5052046;28;20694;-71
2021/07/12 07:54:55;;;;;;;1.63;1.20;;;;;;;28.05;50.04;97523.63;5051224;28;20244;-68
2021/07/12 07:57:22;;;;;;;2.77;1.37;;;;;;;29.47;45.83;97516.34;5061497;28;20571;-71
2021/07/12 07:59:50;;;;;;;1.57;1.30;;;;;;;27.86;49.76;97519.59;5066830;28;20199;-70
2021/07/12 08:02:17;;;;;;;1.47;1.20;;;;;;;27.15;51.88;97522.84;5060627;28;20286;-70
2021/07/12 08:04:46;;;;;;;2.40;1.27;;;;;;;27.70;51.07;97522.00;5060436;28;20696;-70
2021/07/12 08:07:13;;;;;;;2.00;1.20;;;;;;;28.86;47.03;97521.66;5052481;28;20567;-70
2021/07/12 08:09:41;;;;;;;3.40;1.57;;;;;;;26.86;52.74;97506.97;5070185;28;20212;-70
2021/07/12 08:12:08;;;;;;;1.70;1.30;;;;;;;28.30;49.67;97505.50;5060167;28;20208;-71
2021/07/12 08:14:36;;;;;;;3.73;1.20;;;;;;;28.08;48.53;97501.03;5068201;28;20239;-71
2021/07/12 08:17:03;;;;;;;1.73;1.37;;;;;;;28.50;48.45;97494.69;5065245;28;20222;-68
2021/07/12 08:19:30;;;;;;;2.27;1.30;;;;;;;28.61;47.29;97503.34;5061193;28;20216;-71
2021/07/12 08:21:59;;;;;;;2.93;1.30;;;;;;;28.27;48.29;97489.72;5051653;28;20218;-70
2021/07/12 08:24:26;;;;;;;2.73;1.70;;;;;;;28.43;48.51;97502.59;5070028;28;20224;-69
2021/07/12 08:26:53;;;;;;;2.47;1.40;;;;;;;28.53;47.91;97496.75;5062870;28;20203;-70
2021/07/12 08:29:21;;;;;;;2.07;1.30;;;;;;;29.79;45.20;97492.84;5053900;28;20212;-70
2021/07/12 08:31:48;;;;;;;2.27;1.30;;;;;;;28.54;48.37;97470.09;5061444;28;20220;-67
2021/07/12 08:34:15;;;;;;;13.32;1.85;;;;;;;30.89;41.76;97488.94;5071529;28;20237;-70
2021/07/12 08:36:42;;;;;;;4.13;1.20;;;;;;;28.90;46.54;97473.16;5064313;28;20205;-69
2021/07/12 08:39:11;;;;;;;1.80;1.40;;;;;;;29.18;45.92;97477.09;5061588;28;20205;-68
2021/07/12 08:41:39;;;;;;;2.45;1.55;;;;;;;28.21;47.57;97467.13;5058909;28;20291;-72
2021/07/12 08:44:07;;;;;;;2.65;1.27;;;;;;;30.79;42.18;97475.59;5075345;28;20705;-71
2021/07/12 08:46:35;;;;;;;1.98;1.55;;;;;;;29.74;45.22;97468.28;5066999;28;20205;-70
2021/07/12 08:49:03;;;;;;;2.70;1.23;;;;;;;30.52;43.15;97472.69;5075191;28;20720;-72
2021/07/12 08:51:30;;;;;;;1.65;1.35;;;;;;;29.11;46.89;97446.56;5066825;28;20568;-68
2021/07/12 08:53:57;;;;;;;1.45;1.35;;;;;;;29.71;45.20;97439.50;5060819;28;20236;-70
2021/07/12 08:56:26;;;;;;;4.38;1.58;;;;;;;28.84;47.24;97441.53;5063175;28;20211;-70
2021/07/12 08:58:54;;;;;;;1.83;1.33;;;;;;;28.73;47.17;97457.56;5055037;28;20571;-71
2021/07/12 09:01:21;;;;;;;1.70;1.40;;;;;;;30.84;40.29;97496.59;5054756;28;20213;-70
2021/07/12 09:03:51;;;;;;;1.25;1.15;;;;;;;28.03;47.31;97479.25;5060253;28;20209;-70
2021/07/12 09:06:20;;;;;;;2.08;1.10;;;;;;;30.03;42.86;97470.91;5057437;28;20310;-70
2021/07/12 09:08:51;;;;;;;1.80;1.23;;;;;;;29.70;43.55;97478.34;5054787;28;20690;-70
2021/07/12 09:11:29;;;;;;;1.08;0.88;;;;;;;29.20;45.27;97477.56;5058295;28;20213;-68
2021/07/12 09:13:59;;;;;;;3.22;1.85;;;;;;;30.01;42.62;97482.25;5054677;28;20229;-70
2021/07/12 09:16:35;;;;;;;1.27;1.17;;;;;;;30.25;42.93;97481.56;5056193;28;20202;-70
2021/07/12 09:19:11;;;;;;;1.52;1.10;;;;;;;30.05;42.25;97469.41;5059766;28;20213;-71
2021/07/12 09:21:39;;;;;;;1.60;1.08;;;;;;;30.11;42.07;97468.09;5054476;28;20208;-71
2021/07/12 09:24:15;;;;;;;1.95;1.20;;;;;;;30.05;42.93;97465.88;5059516;28;20229;-70
2021/07/12 09:26:44;;;;;;;1.95;1.40;;;;;;;29.59;44.02;97477.94;5056320;28;20685;-70
2021/07/12 09:29:17;;;;;;;3.38;1.20;;;;;;;29.67;42.72;97484.50;5054358;28;20206;-69
2021/07/12 09:31:44;;;;;;;1.38;1.08;;;;;;;29.76;42.96;97469.56;5065073;28;20197;-71
2021/07/12 09:34:11;;;;;;;2.03;1.15;;;;;;;29.66;43.37;97467.22;5074476;28;20233;-70
2021/07/12 09:36:39;;;;;;;1.42;1.20;;;;;;;29.73;42.80;97478.47;5061783;28;20736;-70
2021/07/12 09:39:28;;;;;;;1.48;1.10;;;;;;;29.82;43.09;97478.38;5054210;28;20206;-71
2021/07/12 09:41:58;;;;;;;1.30;1.20;;;;;;;30.99;41.07;97471.13;5059519;28;20225;-70
2021/07/12 09:44:26;;;;;;;1.58;1.20;;;;;;;31.58;39.58;97489.56;5055871;28;20222;-71
2021/07/12 09:46:54;;;;;;;4.07;1.23;;;;;;;30.44;39.96;97488.16;5053880;28;20275;-68
2021/07/12 09:49:23;;;;;;;1.40;1.10;;;;;;;31.34;39.53;97481.34;5071458;28;20577;-70
2021/07/12 09:51:55;;;;;;;2.13;1.10;;;;;;;30.47;41.50;97476.47;5060258;28;20206;-69
2021/07/12 09:54:25;;;;;;;1.40;1.25;;;;;;;29.61;43.94;97466.59;5053360;28;20226;-70
2021/07/12 09:56:54;;;;;;;2.45;1.20;;;;;;;30.25;41.33;97465.84;5053655;28;20199;-70
2021/07/12 09:59:22;;;;;;;1.98;1.20;;;;;;;31.34;39.24;97467.56;5055150;28;20205;-71
2021/07/12 10:01:52;;;;;;;1.10;0.95;;;;;;;30.64;41.03;97448.69;5068471;28;20277;-70
2021/07/12 10:04:20;;;;;;;2.40;1.00;;;;;;;31.22;38.57;97453.78;5061971;28;20590;-70
2021/07/12 10:06:48;;;;;;;1.77;1.13;;;;;;;30.96;40.39;97441.50;5061594;28;20658;-68
2021/07/12 10:09:16;;;;;;;1.10;1.00;;;;;;;30.88;39.13;97431.38;5053759;28;20214;-70
2021/07/12 10:11:44;;;;;;;1.48;1.15;;;;;;;31.61;39.03;97425.41;5073178;28;20206;-67
2021/07/12 10:14:12;;;;;;;1.77;1.48;;;;;;;31.23;38.17;97454.59;5056796;28;20639;-70
2021/07/12 10:16:40;;;;;;;2.08;1.27;;;;;;;32.64;36.12;97451.97;5060393;28;20205;-69
2021/07/12 10:19:08;;;;;;;1.80;1.25;;;;;;;31.76;37.60;97435.72;5057629;28;20229;-71
2021/07/12 10:21:41;;;;;;;3.53;1.27;;;;;;;32.94;36.06;97440.09;5070728;28;20200;-68
2021/07/12 10:24:09;;;;;;;1.75;1.10;;;;;;;32.24;36.75;97435.47;5073102;28;20728;-69
2021/07/12 10:26:46;;;;;;;3.03;1.33;;;;;;;31.51;38.24;97438.88;5072609;28;20193;-70
2021/07/12 10:29:15;;;;;;;2.67;1.38;;;;;;;31.65;37.67;97428.25;5056742;28;20213;-69
2021/07/12 10:31:57;;;;;;;1.73;1.25;;;;;;;34.74;32.55;97453.78;5065151;28;20201;-68
2021/07/12 10:34:29;;;;;;;2.20;1.20;;;;;;;33.17;33.91;97452.09;5054882;28;20233;-68
2021/07/12 10:37:01;;;;;;;1.58;1.30;;;;;;;32.08;36.10;97445.69;5067410;28;20212;-68
2021/07/12 10:40:07;;;;;;;2.20;1.48;;;;;;;32.83;35.56;97450.09;5070920;28;20213;-68
2021/07/12 10:42:56;;;;;;;1.30;1.20;;;;;;;31.98;36.95;97448.19;5072452;28;20740;-68
2021/07/12 10:45:34;;;;;;;1.60;1.30;;;;;;;32.74;36.90;97440.38;5062742;28;20574;-68
2021/07/12 10:48:06;;;;;;;1.38;1.27;;;;;;;31.78;37.53;97458.25;5066030;28;20208;-69
2021/07/12 10:50:51;;;;;;;2.80;1.30;;;;;;;33.46;34.89;97462.69;5069349;28;20213;-68
2021/07/12 10:53:37;;;;;;;1.25;1.05;;;;;;;33.95;33.98;97468.50;5072161;28;20235;-72
2021/07/12 10:56:10;;;;;;;1.67;1.10;;;;;;;34.02;32.70;97471.41;5063997;28;20227;-68
2021/07/12 10:58:51;;;;;;;2.97;2.13;;;;;;;32.80;34.56;97461.06;5064402;28;20200;-68
2021/07/12 11:01:35;;;;;;;1.58;1.48;;;;;;;32.56;34.62;97459.25;5052242;28;20212;-68
2021/07/12 11:04:03;;;;;;;1.90;1.40;;;;;;;32.38;34.57;97446.16;5063074;28;20233;-68
2021/07/12 11:06:56;;;;;;;2.28;1.40;;;;;;;32.80;34.37;97442.53;5062433;28;20207;-69
2021/07/12 11:09:47;;;;;;;1.23;1.13;;;;;;;33.52;32.86;97447.41;5064101;28;20197;-68
2021/07/12 11:12:28;;;;;;;1.88;1.20;;;;;;;33.28;32.94;97455.09;5057866;28;20206;-70
2021/07/12 11:15:14;;;;;;;1.40;1.10;;;;;;;33.00;33.31;97460.78;5072081;28;20225;-69
2021/07/12 11:17:53;;;;;;;1.70;1.25;;;;;;;31.69;35.14;97454.00;5067957;28;20204;-68
2021/07/12 11:20:45;;;;;;;2.10;1.25;;;;;;;33.40;33.49;97455.03;5072248;28;20208;-69
2021/07/12 11:23:46;;;;;;;2.33;1.55;;;;;;;33.69;31.90;97457.22;5054880;28;20328;-68
2021/07/12 11:26:49;;;;;;;1.33;1.13;;;;;;;33.10;33.08;97462.19;5059955;28;20677;-71
2021/07/12 11:29:28;;;;;;;1.80;1.15;;;;;;;33.55;32.25;97456.94;5051931;28;20208;-70
2021/07/12 11:31:57;;;;;;;1.20;1.10;;;;;;;31.12;35.41;97447.91;5057822;28;20653;-68
2021/07/12 11:34:27;;;;;;;2.05;1.27;;;;;;;31.90;33.96;97454.66;5071459;28;20399;-68
2021/07/12 11:36:56;;;;;;;1.55;1.20;;;;;;;32.83;33.37;97446.56;5068197;28;20666;-68
2021/07/12 11:39:26;;;;;;;1.67;1.23;;;;;;;33.39;32.49;97439.59;5051624;28;20690;-68
2021/07/12 11:41:53;;;;;;;1.92;1.20;;;;;;;33.18;32.17;97448.19;5065376;28;20233;-70
2021/07/12 11:44:21;;;;;;;2.67;1.10;;;;;;;35.60;28.45;97458.31;5070474;28;20236;-68
2021/07/12 11:46:51;;;;;;;2.40;1.33;;;;;;;33.01;31.54;97436.69;5062620;28;20541;-69
2021/07/12 11:49:21;;;;;;;2.63;1.30;;;;;;;31.75;33.80;97422.28;5068387;28;20197;-68